createdAt,value
2023-11-25T00:00:20.053Z,6.97
2023-11-25T00:03:13.061Z,20.92
2023-11-25T00:05:45.707Z,28.23
2023-11-25T00:08:18.765Z,21.13
2023-11-25T00:10:51.650Z,6.35
2023-11-25T00:13:24.734Z,5.20
2023-11-25T00:15:57.413Z,4.75
2023-11-25T00:18:30.795Z,5.72
2023-11-25T00:21:03.417Z,5.40
2023-11-25T00:23:36.487Z,5.80
2023-11-25T00:26:09.544Z,5.78
2023-11-25T00:28:46.248Z,4.00
2023-11-25T00:31:18.958Z,2.30
2023-11-25T00:33:52.100Z,5.07
2023-11-25T00:36:24.805Z,5.63
2023-11-25T00:38:57.737Z,3.42
2023-11-25T00:41:30.806Z,9.68
2023-11-25T00:44:04.906Z,4.95
2023-11-25T00:46:38.124Z,5.20
2023-11-25T00:49:12.631Z,7.10
2023-11-25T00:51:45.266Z,7.78
2023-11-25T00:54:18.874Z,6.32
2023-11-25T00:56:51.471Z,4.57
2023-11-25T00:59:24.508Z,4.18
2023-11-25T01:01:57.196Z,9.52
2023-11-25T01:04:30.852Z,12.85
2023-11-25T01:07:03.445Z,6.15
2023-11-25T01:09:36.512Z,6.38
2023-11-25T01:12:09.537Z,4.70
2023-11-25T01:14:42.557Z,5.63
2023-11-25T01:17:15.503Z,8.75
2023-11-25T01:19:48.689Z,7.28
2023-11-25T01:22:21.270Z,6.53
2023-11-25T01:24:54.317Z,1.73
2023-11-25T01:27:27.035Z,2.38
2023-11-25T01:30:00.048Z,4.28
2023-11-25T01:32:33.333Z,5.18
2023-11-25T01:35:07.315Z,6.25
2023-11-25T01:37:40.070Z,12.90
2023-11-25T01:40:13.870Z,6.07
2023-11-25T01:42:46.689Z,4.18
2023-11-25T01:45:19.681Z,4.05
2023-11-25T01:47:53.900Z,2.25
2023-11-25T01:50:26.910Z,3.15
2023-11-25T01:52:59.804Z,3.75
2023-11-25T01:55:34.005Z,2.50
2023-11-25T01:58:06.778Z,3.92
2023-11-25T02:00:41.351Z,1.60
2023-11-25T02:03:17.865Z,7.20
2023-11-25T02:05:51.121Z,2.05
2023-11-25T02:08:24.007Z,2.20
2023-11-25T02:10:58.412Z,3.17
2023-11-25T02:13:31.063Z,1.83
2023-11-25T02:16:04.629Z,3.35
2023-11-25T02:18:38.186Z,3.42
2023-11-25T02:21:11.886Z,8.82
2023-11-25T02:23:44.692Z,3.28
2023-11-25T02:26:19.250Z,5.68
2023-11-25T02:28:52.184Z,4.82
2023-11-25T02:31:25.371Z,1.77
2023-11-25T02:33:58.134Z,1.60
2023-11-25T02:36:31.940Z,2.45
2023-11-25T02:39:04.515Z,0.80
2023-11-25T02:41:38.186Z,1.55
2023-11-25T02:44:11.255Z,0.65
2023-11-25T02:46:48.505Z,0.63
2023-11-25T02:49:22.746Z,1.50
2023-11-25T02:52:00.525Z,1.77
2023-11-25T02:54:33.187Z,1.75
2023-11-25T02:57:09.291Z,1.85
2023-11-25T02:59:41.849Z,2.60
2023-11-25T03:02:16.268Z,1.92
2023-11-25T03:04:50.930Z,1.70
2023-11-25T03:07:23.977Z,3.42
2023-11-25T03:09:56.816Z,5.90
2023-11-25T03:12:29.690Z,7.75
2023-11-25T03:15:02.303Z,5.93
2023-11-25T03:17:35.419Z,5.30
2023-11-25T03:20:11.356Z,2.90
2023-11-25T03:22:45.389Z,1.60
2023-11-25T03:25:18.154Z,24.10
2023-11-25T03:27:51.346Z,1.27
2023-11-25T03:30:24.397Z,4.75
2023-11-25T03:32:57.553Z,1.55
2023-11-25T03:35:30.822Z,1.20
2023-11-25T03:38:04.337Z,19.40
2023-11-25T03:40:37.200Z,4.93
2023-11-25T03:43:10.471Z,1.85
2023-11-25T03:45:43.105Z,3.70
2023-11-25T03:48:16.252Z,17.33
2023-11-25T03:50:49.045Z,4.57
2023-11-25T03:53:22.049Z,2.45
2023-11-25T03:55:54.689Z,7.22
2023-11-25T03:58:27.607Z,3.63
2023-11-25T04:01:00.261Z,5.22
2023-11-25T04:03:36.147Z,7.00
2023-11-25T04:06:10.413Z,5.30
2023-11-25T04:08:43.457Z,1.65
2023-11-25T04:11:16.172Z,2.90
2023-11-25T04:13:49.121Z,1.95
2023-11-25T04:16:23.630Z,3.50
2023-11-25T04:18:56.947Z,2.80
2023-11-25T04:21:29.633Z,2.25
2023-11-25T04:24:02.776Z,1.92
2023-11-25T04:26:37.837Z,2.22
2023-11-25T04:29:10.842Z,10.45
2023-11-25T04:31:43.491Z,6.47
2023-11-25T04:34:16.764Z,1.55
2023-11-25T04:36:49.872Z,2.28
2023-11-25T04:39:25.569Z,1.95
2023-11-25T04:41:58.166Z,3.08
2023-11-25T04:44:31.456Z,2.47
2023-11-25T04:47:04.538Z,2.30
2023-11-25T04:49:37.638Z,2.75
2023-11-25T04:52:10.369Z,3.15
2023-11-25T04:54:43.459Z,4.55
2023-11-25T04:57:16.306Z,5.55
2023-11-25T04:59:49.389Z,3.20
2023-11-25T05:02:22.070Z,3.92
2023-11-25T05:04:55.045Z,3.38
2023-11-25T05:07:27.687Z,3.92
2023-11-25T05:10:01.002Z,2.60
2023-11-25T05:12:34.058Z,8.25
2023-11-25T05:15:09.248Z,8.73
2023-11-25T05:17:42.202Z,9.13
2023-11-25T05:20:18.051Z,10.10
2023-11-25T05:22:50.823Z,10.73
2023-11-25T05:25:24.042Z,6.68
2023-11-25T05:27:56.742Z,15.63
2023-11-25T05:30:29.846Z,4.65
2023-11-25T05:33:02.537Z,16.23
2023-11-25T05:35:35.517Z,6.45
2023-11-25T05:38:09.879Z,2.00
2023-11-25T05:40:43.510Z,2.60
2023-11-25T05:43:17.996Z,7.43
2023-11-25T05:45:51.123Z,5.32
2023-11-25T05:48:24.306Z,3.45
2023-11-25T05:50:57.549Z,4.05
2023-11-25T05:53:30.166Z,3.58
2023-11-25T05:56:03.114Z,2.20
2023-11-25T05:58:35.804Z,1.27
2023-11-25T06:01:08.789Z,2.20
2023-11-25T06:03:44.043Z,4.57
2023-11-25T06:06:17.423Z,1.90
2023-11-25T06:08:50.628Z,2.03
2023-11-25T06:11:24.294Z,4.10
2023-11-25T06:13:57.895Z,3.72
2023-11-25T06:16:30.989Z,2.42
2023-11-25T06:19:05.753Z,2.40
2023-11-25T06:21:41.649Z,13.02
2023-11-25T06:24:16.812Z,6.75
2023-11-25T06:26:51.616Z,5.18
2023-11-25T06:29:24.347Z,4.60
2023-11-25T06:31:57.242Z,19.25
2023-11-25T06:34:30.001Z,10.95
2023-11-25T06:37:02.977Z,9.27
2023-11-25T06:39:36.905Z,18.67
2023-11-25T06:42:11.367Z,6.00
2023-11-25T06:44:45.597Z,17.10
2023-11-25T06:47:18.611Z,4.85
2023-11-25T06:49:52.826Z,23.23
2023-11-25T06:52:25.860Z,11.20
2023-11-25T06:54:58.494Z,19.23
2023-11-25T06:57:31.572Z,15.00
2023-11-25T07:00:05.134Z,27.52
2023-11-25T07:02:39.174Z,10.27
2023-11-25T07:05:12.117Z,6.32
2023-11-25T07:07:45.339Z,28.48
2023-11-25T07:10:18.240Z,4.75
2023-11-25T07:12:51.210Z,9.88
2023-11-25T07:15:23.838Z,11.50
2023-11-25T07:17:57.247Z,7.22
2023-11-25T07:20:30.787Z,3.30
2023-11-25T07:23:04.082Z,8.02
2023-11-25T07:25:39.236Z,5.82
2023-11-25T07:28:12.447Z,9.90
2023-11-25T07:30:46.172Z,6.40
2023-11-25T07:33:20.190Z,6.13
2023-11-25T07:35:53.318Z,4.43
2023-11-25T07:38:26.355Z,6.22
2023-11-25T07:40:59.045Z,4.30
2023-11-25T07:43:32.756Z,2.75
2023-11-25T07:46:09.528Z,3.60
2023-11-25T07:48:42.528Z,4.82
2023-11-25T07:51:15.241Z,4.05
2023-11-25T07:53:48.265Z,3.85
2023-11-25T07:56:21.632Z,2.97
2023-11-25T07:58:54.834Z,8.35
2023-11-25T08:01:27.780Z,1.98
2023-11-25T08:04:01.687Z,2.58
2023-11-25T08:06:34.913Z,24.70
2023-11-25T08:09:09.527Z,22.23
2023-11-25T08:11:42.121Z,9.98
2023-11-25T08:14:15.203Z,7.30
2023-11-25T08:16:51.075Z,6.60
2023-11-25T08:19:24.167Z,11.55
2023-11-25T08:21:56.781Z,23.48
2023-11-25T08:24:29.709Z,8.52
2023-11-25T08:27:02.314Z,19.17
2023-11-25T08:29:35.346Z,7.35
2023-11-25T08:32:09.428Z,22.23
2023-11-25T08:34:42.480Z,12.40
2023-11-25T08:37:15.159Z,10.32
2023-11-25T08:39:48.706Z,9.32
2023-11-25T08:42:21.412Z,2.20
2023-11-25T08:44:54.430Z,9.95
2023-11-25T08:47:27.028Z,3.45
2023-11-25T08:50:01.152Z,14.95
2023-11-25T08:52:36.751Z,9.88
2023-11-25T08:55:11.214Z,15.98
2023-11-25T08:57:44.234Z,18.02
2023-11-25T09:00:23.603Z,16.13
2023-11-25T09:02:59.183Z,13.90
2023-11-25T09:05:33.451Z,14.18
2023-11-25T09:08:09.227Z,9.30
2023-11-25T09:10:42.451Z,10.50
2023-11-25T09:13:15.524Z,4.10
2023-11-25T09:15:49.077Z,4.65
2023-11-25T09:18:22.038Z,4.82
2023-11-25T09:20:54.964Z,3.53
2023-11-25T09:23:27.753Z,2.72
2023-11-25T09:26:00.728Z,2.28
2023-11-25T09:28:33.422Z,3.95
2023-11-25T09:31:06.445Z,8.05
2023-11-25T09:33:39.203Z,3.00
2023-11-25T09:36:12.307Z,3.17
2023-11-25T09:38:44.947Z,2.63
2023-11-25T09:41:19.008Z,7.78
2023-11-25T09:43:51.883Z,8.30
2023-11-25T09:46:25.250Z,4.93
2023-11-25T09:48:57.874Z,4.70
2023-11-25T09:51:34.534Z,3.65
2023-11-25T09:54:09.404Z,3.30
2023-11-25T09:56:43.494Z,6.20
2023-11-25T09:59:16.440Z,4.05
2023-11-25T10:01:50.421Z,3.00
2023-11-25T10:04:23.158Z,3.40
2023-11-25T10:06:56.231Z,6.28
2023-11-25T10:09:28.814Z,3.92
2023-11-25T10:12:03.447Z,7.45
2023-11-25T10:14:39.739Z,6.25
2023-11-25T10:17:19.554Z,5.03
2023-11-25T10:20:07.192Z,7.45
2023-11-25T10:22:50.539Z,6.57
2023-11-25T10:25:23.189Z,8.20
2023-11-25T10:27:56.557Z,10.23
2023-11-25T10:30:30.272Z,17.25
2023-11-25T10:33:05.489Z,6.28
2023-11-25T10:35:39.107Z,29.95
2023-11-25T10:38:12.260Z,13.68
2023-11-25T10:40:45.036Z,9.43
2023-11-25T10:43:21.262Z,19.75
2023-11-25T10:46:05.103Z,8.98
2023-11-25T10:48:41.382Z,2.42
2023-11-25T10:51:14.494Z,7.80
2023-11-25T10:53:48.613Z,8.10
2023-11-25T10:56:21.472Z,5.30
2023-11-25T10:58:54.723Z,5.50
2023-11-25T11:01:29.596Z,6.82
2023-11-25T11:04:14.971Z,10.43
2023-11-25T11:06:55.907Z,10.00
2023-11-25T11:09:31.261Z,4.45
2023-11-25T11:12:07.532Z,4.65
2023-11-25T11:14:48.583Z,22.75
2023-11-25T11:17:47.781Z,5.07
2023-11-25T11:20:23.420Z,3.75
2023-11-25T11:22:57.691Z,11.65
2023-11-25T11:25:34.235Z,2.45
2023-11-25T11:28:16.897Z,5.03
2023-11-25T11:30:51.142Z,10.55
2023-11-25T11:33:23.915Z,23.15
2023-11-25T11:35:58.240Z,14.85
2023-11-25T11:38:32.424Z,5.40
2023-11-25T11:41:08.386Z,9.98
2023-11-25T11:43:41.359Z,7.47
2023-11-25T11:46:16.044Z,18.00
2023-11-25T11:48:49.588Z,15.55
2023-11-25T11:51:24.519Z,17.83
2023-11-25T11:54:15.737Z,18.75
2023-11-25T11:57:00.686Z,44.30
2023-11-25T11:59:51.976Z,25.17
2023-11-25T12:02:25.127Z,25.23
2023-11-25T12:05:01.608Z,6.88
2023-11-25T12:07:34.904Z,14.45
2023-11-25T12:10:08.016Z,6.25
2023-11-25T12:12:42.247Z,6.25
2023-11-25T12:15:17.014Z,7.93
2023-11-25T12:17:50.669Z,23.20
2023-11-25T12:20:24.372Z,24.33
2023-11-25T12:22:57.778Z,47.03
2023-11-25T12:25:34.715Z,7.28
2023-11-25T12:28:09.442Z,30.73
2023-11-25T12:30:43.185Z,9.27
2023-11-25T12:33:16.771Z,34.83
2023-11-25T12:35:49.597Z,12.95
2023-11-25T12:38:23.028Z,6.43
2023-11-25T12:40:56.862Z,9.05
2023-11-25T12:43:29.854Z,7.25
2023-11-25T12:46:10.414Z,9.68
2023-11-25T12:48:43.411Z,7.17
2023-11-25T12:51:16.044Z,8.15
2023-11-25T12:53:55.575Z,2.97
2023-11-25T12:56:28.315Z,4.13
2023-11-25T12:59:01.350Z,6.68
2023-11-25T13:01:34.082Z,2.90
2023-11-25T13:04:07.386Z,3.63
2023-11-25T13:06:49.756Z,4.60
2023-11-25T13:09:29.247Z,7.90
2023-11-25T13:12:01.853Z,3.15
2023-11-25T13:14:34.905Z,5.88
2023-11-25T13:17:07.719Z,5.90
2023-11-25T13:19:42.053Z,9.02
2023-11-25T13:22:14.695Z,4.15
2023-11-25T13:24:47.724Z,21.75
2023-11-25T13:27:20.378Z,16.40
2023-11-25T13:29:53.329Z,6.97
2023-11-25T13:32:26.043Z,11.60
2023-11-25T13:34:59.520Z,6.80
2023-11-25T13:37:33.020Z,6.03
2023-11-25T13:40:08.409Z,7.40
2023-11-25T13:42:41.105Z,6.07
2023-11-25T13:45:14.554Z,13.95
2023-11-25T13:47:49.546Z,22.88
2023-11-25T13:50:22.507Z,13.30
2023-11-25T13:52:55.177Z,18.35
2023-11-25T13:55:28.661Z,10.95
2023-11-25T13:58:01.405Z,38.90
2023-11-25T14:00:34.521Z,110.88
2023-11-25T14:03:12.100Z,10.07
2023-11-25T14:05:45.633Z,25.70
2023-11-25T14:08:20.286Z,22.13
2023-11-25T14:10:53.241Z,44.28
2023-11-25T14:13:26.120Z,48.08
2023-11-25T14:16:00.980Z,77.20
2023-11-25T14:18:33.725Z,66.22
2023-11-25T14:21:08.137Z,74.28
2023-11-25T14:23:40.720Z,118.47
2023-11-25T14:26:16.136Z,31.83
2023-11-25T14:28:50.504Z,42.00
2023-11-25T14:31:23.818Z,36.35
2023-11-25T14:33:56.448Z,26.33
2023-11-25T14:36:29.825Z,31.45
2023-11-25T14:39:02.481Z,24.63
2023-11-25T14:41:35.659Z,29.52
2023-11-25T14:44:08.257Z,18.88
2023-11-25T14:46:41.624Z,15.95
2023-11-25T14:49:15.756Z,13.55
2023-11-25T14:51:48.733Z,26.33
2023-11-25T14:54:21.479Z,22.60
2023-11-25T14:56:54.541Z,15.25
2023-11-25T14:59:27.966Z,18.98
2023-11-25T15:02:01.219Z,18.05
2023-11-25T15:04:34.455Z,11.30
2023-11-25T15:07:07.619Z,12.10
2023-11-25T15:09:40.561Z,9.30
2023-11-25T15:12:16.759Z,9.90
2023-11-25T15:14:51.331Z,24.33
2023-11-25T15:17:25.353Z,26.75
2023-11-25T15:19:58.134Z,26.20
2023-11-25T15:22:31.135Z,31.92
2023-11-25T15:25:03.916Z,17.13
2023-11-25T15:27:37.037Z,13.25
2023-11-25T15:30:11.989Z,33.38
2023-11-25T15:32:45.548Z,15.60
2023-11-25T15:35:19.219Z,18.23
2023-11-25T15:37:52.710Z,20.23
2023-11-25T15:40:25.381Z,9.38
2023-11-25T15:42:58.412Z,21.00
2023-11-25T15:45:31.152Z,14.82
2023-11-25T15:48:04.369Z,22.08
2023-11-25T15:50:37.069Z,28.42
2023-11-25T15:53:10.510Z,26.42
2023-11-25T15:55:43.150Z,12.63
2023-11-25T15:58:16.179Z,16.83
2023-11-25T16:00:49.921Z,8.05
2023-11-25T16:03:23.466Z,11.38
2023-11-25T16:05:56.871Z,7.60
2023-11-25T16:08:29.834Z,16.70
2023-11-25T16:11:02.893Z,35.78
2023-11-25T16:13:36.103Z,33.38
2023-11-25T16:16:10.844Z,29.50
2023-11-25T16:18:44.054Z,19.90
2023-11-25T16:21:17.548Z,10.82
2023-11-25T16:23:50.937Z,31.52
2023-11-25T16:26:23.614Z,35.42
2023-11-25T16:28:56.763Z,28.70
2023-11-25T16:31:29.591Z,24.67
2023-11-25T16:34:02.697Z,17.25
2023-11-25T16:36:35.958Z,19.70
2023-11-25T16:39:11.454Z,18.58
2023-11-25T16:41:51.032Z,24.67
2023-11-25T16:44:24.305Z,40.92
2023-11-25T16:46:58.552Z,48.70
2023-11-25T16:49:40.921Z,45.30
2023-11-25T16:52:15.666Z,35.90
2023-11-25T16:54:49.623Z,35.42
2023-11-25T16:57:22.312Z,63.22
2023-11-25T16:59:55.497Z,92.03
2023-11-25T17:02:30.096Z,56.58
2023-11-25T17:05:03.356Z,149.65
2023-11-25T17:07:37.381Z,119.55
2023-11-25T17:10:10.490Z,125.30
2023-11-25T17:12:43.533Z,98.20
2023-11-25T17:15:16.797Z,80.30
2023-11-25T17:17:49.370Z,76.18
2023-11-25T17:20:23.174Z,59.47
2023-11-25T17:22:55.982Z,41.30
2023-11-25T17:25:32.164Z,37.17
2023-11-25T17:28:05.262Z,33.60
2023-11-25T17:30:38.171Z,23.38
2023-11-25T17:33:14.438Z,26.45
2023-11-25T17:35:47.628Z,29.98
2023-11-25T17:38:20.473Z,26.73
2023-11-25T17:40:54.678Z,31.23
2023-11-25T17:43:27.328Z,37.67
2023-11-25T17:46:00.727Z,24.48
2023-11-25T17:48:34.112Z,32.50
2023-11-25T17:51:08.761Z,20.77
2023-11-25T17:53:41.508Z,29.20
2023-11-25T17:56:14.574Z,17.58
2023-11-25T17:58:47.943Z,27.13
2023-11-25T18:01:21.646Z,20.65
2023-11-25T18:03:54.271Z,21.58
2023-11-25T18:06:27.227Z,25.63
2023-11-25T18:08:59.834Z,17.73
2023-11-25T18:11:32.836Z,21.05
2023-11-25T18:14:05.532Z,23.02
2023-11-25T18:16:38.810Z,21.73
2023-11-25T18:19:12.158Z,22.75
2023-11-25T18:21:45.355Z,19.67
2023-11-25T18:24:18.003Z,19.10
2023-11-25T18:26:51.034Z,21.00
2023-11-25T18:29:23.666Z,19.27
2023-11-25T18:31:56.738Z,22.52
2023-11-25T18:34:29.497Z,39.63
2023-11-25T18:37:02.566Z,49.97
2023-11-25T18:39:35.256Z,21.25
2023-11-25T18:42:08.219Z,23.13
2023-11-25T18:44:41.245Z,25.55
2023-11-25T18:47:14.229Z,20.60
2023-11-25T18:49:46.890Z,26.75
2023-11-25T18:52:19.895Z,53.15
2023-11-25T18:54:52.651Z,37.38
2023-11-25T18:57:26.361Z,19.27
2023-11-25T18:59:59.365Z,25.00
2023-11-25T19:02:32.471Z,24.98
2023-11-25T19:05:06.875Z,17.20
2023-11-25T19:07:39.792Z,22.50
2023-11-25T19:10:12.413Z,23.70
2023-11-25T19:12:45.465Z,13.38
2023-11-25T19:15:18.144Z,15.10
2023-11-25T19:17:51.186Z,22.08
2023-11-25T19:20:23.881Z,21.13
2023-11-25T19:22:56.889Z,24.58
2023-11-25T19:25:29.499Z,40.30
2023-11-25T19:28:03.309Z,32.25
2023-11-25T19:30:35.951Z,25.55
2023-11-25T19:33:10.660Z,24.45
2023-11-25T19:35:43.485Z,31.13
2023-11-25T19:38:16.767Z,28.25
2023-11-25T19:40:49.432Z,27.67
2023-11-25T19:43:22.509Z,33.17
2023-11-25T19:45:55.127Z,24.35
2023-11-25T19:48:28.206Z,19.45
2023-11-25T19:51:00.871Z,15.77
2023-11-25T19:53:49.520Z,16.20
2023-11-25T19:56:24.346Z,17.65
2023-11-25T19:58:57.944Z,12.40
2023-11-25T20:01:30.574Z,14.10
2023-11-25T20:04:03.601Z,14.82
2023-11-25T20:06:37.503Z,16.17
2023-11-25T20:09:10.966Z,23.08
2023-11-25T20:11:43.578Z,36.25
2023-11-25T20:14:17.872Z,37.30
2023-11-25T20:16:50.829Z,20.50
2023-11-25T20:19:23.823Z,33.90
2023-11-25T20:21:57.021Z,19.42
2023-11-25T20:24:32.408Z,38.03
2023-11-25T20:27:05.359Z,40.40
2023-11-25T20:29:38.807Z,28.90
2023-11-25T20:32:11.767Z,23.35
2023-11-25T20:34:44.892Z,23.92
2023-11-25T20:37:17.626Z,24.13
2023-11-25T20:39:50.606Z,23.20
2023-11-25T20:42:23.248Z,27.73
2023-11-25T20:44:56.293Z,26.08
2023-11-25T20:47:29.127Z,35.08
2023-11-25T20:50:02.372Z,40.00
2023-11-25T20:52:35.017Z,23.63
2023-11-25T20:55:08.437Z,32.35
2023-11-25T20:57:41.543Z,24.13
2023-11-25T21:00:15.322Z,31.92
2023-11-25T21:02:48.245Z,25.95
2023-11-25T21:05:21.392Z,20.40
2023-11-25T21:07:54.323Z,17.05
2023-11-25T21:10:27.418Z,45.67
2023-11-25T21:13:00.494Z,24.38
2023-11-25T21:15:33.446Z,36.97
2023-11-25T21:18:06.252Z,29.58
2023-11-25T21:20:40.925Z,30.98
2023-11-25T21:23:13.688Z,30.27
2023-11-25T21:25:47.065Z,21.45
2023-11-25T21:28:19.716Z,13.98
2023-11-25T21:30:52.924Z,21.48
2023-11-25T21:33:25.677Z,15.15
2023-11-25T21:35:58.741Z,20.95
2023-11-25T21:38:32.338Z,27.00
2023-11-25T21:41:07.059Z,14.93
2023-11-25T21:43:39.793Z,14.35
2023-11-25T21:46:12.831Z,12.05
2023-11-25T21:48:45.638Z,14.88
2023-11-25T21:51:18.557Z,16.83
2023-11-25T21:53:51.387Z,9.38
2023-11-25T21:56:24.373Z,9.27
2023-11-25T21:58:57.254Z,14.02
2023-11-25T22:01:30.279Z,11.02
2023-11-25T22:04:03.066Z,14.13
2023-11-25T22:06:37.250Z,10.57
2023-11-25T22:09:16.106Z,17.27
2023-11-25T22:11:49.395Z,11.48
2023-11-25T22:14:22.010Z,25.25
2023-11-25T22:16:56.157Z,33.03
2023-11-25T22:19:28.728Z,23.40
2023-11-25T22:22:02.178Z,44.75
2023-11-25T22:24:34.772Z,64.65
2023-11-25T22:27:39.898Z,21.88
2023-11-25T22:30:13.468Z,19.63
2023-11-25T22:32:46.541Z,22.23
2023-11-25T22:35:20.942Z,22.90
2023-11-25T22:37:54.379Z,18.73
2023-11-25T22:40:26.979Z,35.05
2023-11-25T22:42:59.909Z,43.75
2023-11-25T22:45:33.533Z,17.33
2023-11-25T22:48:06.524Z,24.52
2023-11-25T22:50:39.487Z,17.85
2023-11-25T22:53:12.888Z,15.75
2023-11-25T22:55:45.610Z,15.30
2023-11-25T22:58:18.556Z,19.15
2023-11-25T23:00:53.828Z,23.42
2023-11-25T23:03:27.263Z,24.00
2023-11-25T23:06:00.154Z,20.75
2023-11-25T23:08:33.078Z,11.63
2023-11-25T23:11:05.853Z,30.02
2023-11-25T23:13:38.975Z,19.10
2023-11-25T23:16:11.889Z,38.90
2023-11-25T23:18:44.957Z,30.15
2023-11-25T23:21:17.757Z,61.90
2023-11-25T23:23:50.767Z,27.83
2023-11-25T23:26:23.477Z,20.05
2023-11-25T23:28:56.491Z,25.52
2023-11-25T23:31:29.162Z,18.30
2023-11-25T23:34:02.529Z,24.13
2023-11-25T23:36:35.682Z,17.60
2023-11-25T23:39:09.305Z,14.73
2023-11-25T23:41:42.241Z,25.75
2023-11-25T23:44:15.283Z,18.02
2023-11-25T23:46:48.212Z,11.50
2023-11-25T23:49:21.192Z,13.57
2023-11-25T23:51:53.923Z,14.43
2023-11-25T23:54:27.652Z,16.70
2023-11-25T23:57:01.564Z,7.82
2023-11-25T23:59:34.678Z,14.40
